Latest Weather Observations for Hobart

IDT60901

Issued at 1:41 am EST Sunday 30 April 2017 (issued every 10 minutes, with the page automatically refreshed every 10 minutes)

About weather observations | Map of Hobart area stations | Latest observations for Hobart area | Other Formats
Station Details ID: 094029 Name: HOBART (ELLERSLIE ROAD) Lat: -42.89 Lon: 147.33 Height: 50.5 m
Data from the previous 72 hours. | See also: Recent months at Hobart
Date/Time
EST
Temp
°C
App
Temp
°C
Dew
Point
°C
Rel
Hum
%
Delta-T
°C
Wind Press
QNH
hPa
Press
MSL
hPa
Rain since
9am
mm
Dir  Spd
km/h
Gust
km/h
Spd
kts
Gust
kts
30/01:30am 10.8 6.7 8.8 87 1.0 NNW 20 24 11 13 1020.7 1020.7 0.0
30/01:00am 11.5 8.9 9.3 86 1.1 NNW 13 24 7 13 1021.2 1021.2 0.0
30/12:30am 11.6 9.4 9.4 86 1.1 NNW 11 15 6 8 1021.5 1021.5 0.0
30/12:00am 12.2 10.4 9.6 84 1.3 NW 9 13 5 7 1021.8 1021.8 0.0
 
Date/Time
EST
Temp
°C
App
Temp
°C
Dew
Point
°C
Rel
Hum
%
Delta-T
°C
Wind Press
QNH
hPa
Press
MSL
hPa
Rain since
9am
mm
Dir  Spd
km/h
Gust
km/h
Spd
kts
Gust
kts
29/11:30pm 12.5 10.7 9.3 81 1.6 NNE 9 13 5 7 1021.7 1021.7 0.0
29/11:00pm 12.5 11.0 9.1 80 1.7 ENE 7 9 4 5 1021.8 1021.8 0.0
29/10:30pm 12.6 11.3 9.2 80 1.7 NE 6 9 3 5 1021.9 1021.9 0.0
29/10:00pm 12.7 10.6 9.8 82 1.5 NE 11 15 6 8 1021.8 1021.8 0.0
29/09:30pm 12.5 12.1 9.8 83 1.4 N 2 7 1 4 1021.8 1021.8 0.0
29/09:00pm 12.3 12.2 9.3 82 1.5 CALM 0 0 0 0 1021.7 1021.7 0.0
29/08:30pm 12.1 12.0 9.3 83 1.4 CALM 0 0 0 0 1021.5 1021.5 0.0
29/08:00pm 12.1 10.8 9.3 83 1.4 W 6 9 3 5 1021.3 1021.3 0.0
29/07:30pm 12.0 10.5 9.2 83 1.4 WSW 7 9 4 5 1021.1 1021.1 0.0
29/07:00pm 12.3 10.8 9.3 82 1.5 S 7 11 4 6 1020.9 1020.9 0.0
29/06:30pm 12.0 9.8 9.2 83 1.4 SSW 11 15 6 8 1020.5 1020.5 0.0
29/06:00pm 12.3 10.4 9.1 81 1.6 SW 9 15 5 8 1020.0 1020.0 0.0
29/05:30pm 12.6 10.7 9.2 80 1.7 SSW 9 13 5 7 1019.6 1019.6 0.0
29/05:00pm 13.3 11.9 9.4 77 2.0 S 7 11 4 6 1019.1 1019.1 0.0
29/04:30pm 14.0 10.3 9.3 73 2.4 SSW 19 28 10 15 1018.9 1018.9 0.0
29/04:00pm 14.8 11.0 9.1 68 2.9 S 19 28 10 15 1018.3 1018.3 0.0
29/03:30pm 15.8 11.4 8.8 63 3.6 S 22 33 12 18 1018.0 1018.0 0.0
29/03:00pm 17.1 11.7 6.3 49 5.3 SSW 24 35 13 19 1017.5 1017.5 0.0
29/02:30pm 17.1 11.7 6.3 49 5.3 SSW 24 37 13 20 1017.3 1017.3 0.0
29/02:00pm 17.2 11.7 5.9 47 5.5 SSW 24 35 13 19 1017.0 1017.0 0.0
29/01:30pm 17.1 12.0 6.0 48 5.4 SSW 22 35 12 19 1016.9 1016.9 0.0
29/01:00pm 17.2 11.6 5.6 46 5.6 SSW 24 32 13 17 1016.9 1016.9 0.0
29/12:30pm 16.4 11.8 5.6 49 5.2 SSW 19 39 10 21 1017.1 1017.1 0.0
29/12:00pm 16.3 11.8 6.0 50 5.0 SW 19 28 10 15 1017.4 1017.4 0.0
29/11:30am 16.8 11.5 5.1 46 5.6 SW 22 37 12 20 1017.1 1017.1 0.0
29/11:00am 16.8 12.4 4.8 45 5.7 SSW 17 33 9 18 1017.1 1017.1 0.0
29/10:30am 17.3 12.5 5.5 45 5.7 SW 20 37 11 20 1016.6 1016.6 0.0
29/10:00am 16.8 13.3 5.4 47 5.5 SSE 13 26 7 14 1016.2 1016.2 0.0
29/09:30am 17.0 14.0 6.2 49 5.3 NNW 11 17 6 9 1015.8 1015.8 0.0
29/09:00am 15.5 12.3 5.2 50 4.9 ENE 11 22 6 12 1015.4 1015.4 0.0
29/08:30am 14.2 11.3 6.3 59 3.8 S 11 22 6 12 1014.9 1014.9 0.0
29/08:00am 14.3 10.2 6.2 58 3.9 SSW 17 30 9 16 1014.5 1014.5 0.0
29/07:30am 14.3 12.1 6.2 58 3.9 SW 7 11 4 6 1014.0 1014.0 0.0
29/07:00am 13.4 11.0 7.0 65 3.1 NNW 9 13 5 7 1013.4 1013.4 0.0
29/06:30am 13.9 12.4 6.7 62 3.5 SW 4 9 2 5 1013.1 1013.1 0.0
29/06:00am 14.6 10.9 6.1 56 4.1 W 15 28 8 15 1012.9 1012.9 0.0
29/05:30am 13.8 10.6 6.8 62 3.4 NNE 13 22 7 12 1012.3 1012.3 0.0
29/05:00am 14.0 11.1 6.3 60 3.7 NNE 11 17 6 9 1011.9 1011.9 0.0
29/04:30am 13.9 11.7 6.4 60 3.6 NE 7 13 4 7 1011.6 1011.6 0.0
29/04:00am 14.1 11.5 6.2 59 3.8 NW 9 22 5 12 1011.2 1011.2 0.0
29/03:30am 13.5 12.0 8.3 71 2.6 N 6 9 3 5 1010.8 1010.7 0.0
29/03:00am 13.9 12.1 9.4 74 2.3 ENE 9 13 5 7 1010.7 1010.6 0.0
29/02:30am 14.4 12.2 8.0 65 3.2 NW 9 22 5 12 1010.6 1010.5 0.0
29/02:00am 14.6 12.8 9.4 71 2.7 SSW 9 19 5 10 1010.8 1010.7 0.0
29/01:30am 15.1 12.9 9.5 69 2.9 S 11 17 6 9 1010.9 1010.8 0.0
29/01:00am 16.0 14.3 8.3 60 3.9 S 7 9 4 5 1010.4 1010.3 0.0
29/12:30am 16.2 12.2 8.1 58 4.1 NNW 19 26 10 14 1010.0 1010.0 0.0
29/12:00am 16.4 12.1 7.9 57 4.3 NNW 20 32 11 17 1010.0 1010.0 0.0
 
Date/Time
EST
Temp
°C
App
Temp
°C
Dew
Point
°C
Rel
Hum
%
Delta-T
°C
Wind Press
QNH
hPa
Press
MSL
hPa
Rain since
9am
mm
Dir  Spd
km/h
Gust
km/h
Spd
kts
Gust
kts
28/11:30pm 16.5 12.1 7.5 55 4.5 N 20 37 11 20 1009.8 1009.8 0.0
28/11:00pm 16.4 12.7 8.1 58 4.2 NNW 17 28 9 15 1009.7 1009.7 0.0
28/10:30pm 16.3 11.8 8.7 60 3.9 N 22 35 12 19 1009.7 1009.7 0.0
28/10:00pm 16.2 10.9 8.6 60 3.9 NNW 26 35 14 19 1009.8 1009.8 0.0
28/09:30pm 16.0 11.6 8.8 62 3.7 NNW 22 33 12 18 1010.1 1010.1 0.0
28/09:17pm 16.1 10.5 8.7 61 3.8 NNW 28 48 15 26 1010.0 1010.0 0.0
28/09:00pm 16.2 10.9 8.6 60 3.9 NNW 26 44 14 24 1010.2 1010.2 0.0
28/08:30pm 16.2 12.0 8.4 60 4.0 NNW 20 32 11 17 1010.5 1010.4 0.0
28/08:00pm 16.2 10.5 8.4 60 4.0 N 28 44 15 24 1010.2 1010.2 0.0
28/07:30pm 16.1 11.1 8.2 59 4.0 N 24 39 13 21 1010.5 1010.4 0.0
28/07:00pm 16.3 10.5 8.0 58 4.2 N 28 46 15 25 1010.7 1010.6 0.0
28/06:39pm 16.2 10.3 7.4 56 4.4 N 28 52 15 28 1010.4 1010.3 0.0
28/06:30pm 16.3 10.4 7.3 55 4.5 N 28 41 15 22 1010.5 1010.4 0.0
28/06:09pm 16.3 10.3 7.0 54 4.6 N 28 46 15 25 1010.6 1010.5 0.0
28/06:00pm 16.3 11.7 6.3 51 4.9 N 20 35 11 19 1010.6 1010.5 0.0
28/05:36pm 16.5 10.3 6.0 50 5.1 N 28 46 15 25 1010.5 1010.4 0.0
28/05:30pm 16.6 11.1 5.9 49 5.2 N 24 39 13 21 1010.4 1010.3 0.0
28/05:08pm 16.7 9.7 5.8 48 5.3 NNW 32 50 17 27 1010.6 1010.5 0.0
28/05:00pm 16.7 9.4 5.5 47 5.4 NNW 33 50 18 27 1010.6 1010.5 0.0
28/04:33pm 17.0 10.5 4.9 44 5.8 NW 28 48 15 26 1010.6 1010.5 0.0
28/04:30pm 17.0 10.6 5.1 45 5.7 NW 28 43 15 23 1010.7 1010.6 0.0
28/04:00pm 17.4 10.4 4.3 42 6.2 NNW 30 43 16 23 1010.9 1010.8 0.0
28/03:33pm 18.0 11.2 3.2 37 6.9 NNW 28 46 15 25 1010.9 1010.8 0.0
28/03:30pm 18.0 11.7 3.5 38 6.8 NNW 26 39 14 21 1010.9 1010.8 0.0
28/03:26pm 18.2 11.5 3.5 37 6.9 NW 28 46 15 25 1011.0 1011.0 0.0
28/03:00pm 19.0 11.4 2.9 34 7.5 NW 32 43 17 23 1010.8 1010.7 0.0
28/02:30pm 19.4 12.6 3.3 34 7.6 NW 28 46 15 25 1010.9 1010.8 0.0
28/02:04pm 18.9 11.9 4.3 38 7.0 NW 30 48 16 26 1010.8 1010.7 0.0
28/02:00pm 18.9 12.0 4.6 39 6.9 NW 30 46 16 25 1010.8 1010.7 0.0
28/01:39pm 18.6 11.4 6.1 44 6.2 NW 33 54 18 29 1010.9 1010.8 0.0
28/01:30pm 18.9 11.6 7.0 46 6.0 NW 35 48 19 26 1010.9 1010.8 0.0
28/01:00pm 17.6 10.9 7.5 51 5.1 NW 32 50 17 27 1011.4 1011.4 0.0
28/12:30pm 17.4 11.5 7.5 52 5.0 NW 28 46 15 25 1011.8 1011.8 0.0
28/12:18pm 16.9 10.2 7.3 53 4.8 NW 32 50 17 27 1011.7 1011.7 0.0
28/12:00pm 16.8 10.5 7.2 53 4.8 NW 30 46 16 25 1012.0 1012.0 0.0
28/11:40am 16.4 9.9 6.7 52 4.8 NNW 30 54 16 29 1012.5 1012.5 0.0
28/11:30am 16.5 11.2 7.0 53 4.7 NW 24 39 13 21 1012.7 1012.7 0.0
28/11:12am 15.9 9.8 6.8 54 4.5 NNW 28 46 15 25 1013.0 1013.0 0.0
28/11:00am 16.1 11.5 6.5 53 4.7 NNW 20 33 11 18 1013.2 1013.2 0.0
28/10:30am 15.4 11.0 6.6 55 4.3 NW 19 33 10 18 1013.7 1013.7 0.0
28/10:00am 15.3 10.7 6.7 56 4.2 NW 20 35 11 19 1013.7 1013.7 0.0
28/09:30am 15.0 10.7 6.8 58 4.0 NNW 19 26 10 14 1014.2 1014.2 0.0
28/09:00am 14.8 11.7 7.3 61 3.7 NW 13 22 7 12 1014.4 1014.4 0.0
28/08:30am 14.5 10.5 6.7 59 3.8 NNW 17 26 9 14 1014.5 1014.5 0.0
28/08:00am 14.0 11.2 7.0 62 3.4 NNE 11 15 6 8 1014.6 1014.6 0.0
28/07:30am 13.4 10.1 6.3 62 3.4 N 13 22 7 12 1014.6 1014.6 0.0
28/07:00am 12.0 9.9 6.5 69 2.6 E 7 13 4 7 1014.4 1014.4 0.0
28/06:30am 11.3 9.1 6.4 72 2.3 SE 7 9 4 5 1014.3 1014.3 0.0
28/06:00am 11.1 8.7 6.9 75 2.0 S 9 13 5 7 1014.3 1014.3 0.0
28/05:30am 12.3 9.9 6.9 69 2.6 WSW 9 11 5 6 1014.2 1014.2 0.0
28/05:00am 12.7 10.3 7.1 69 2.7 SW 9 13 5 7 1014.2 1014.2 0.0
28/04:30am 12.6 10.2 7.2 69 2.6 SSW 9 15 5 8 1013.8 1013.8 0.0
28/04:00am 13.5 11.1 6.9 64 3.2 S 9 15 5 8 1014.0 1014.0 0.0
28/03:30am 13.7 12.3 7.1 64 3.2 E 4 9 2 5 1013.9 1013.9 0.0
28/03:00am 13.4 11.1 7.5 67 2.9 SSE 9 13 5 7 1013.7 1013.7 0.0
28/02:30am 14.2 9.7 7.0 62 3.5 NW 20 33 11 18 1013.6 1013.6 0.0
28/02:00am 14.2 8.6 7.3 63 3.4 NW 26 39 14 21 1013.4 1013.4 0.0
28/01:30am 14.2 7.6 7.8 65 3.2 NNW 32 44 17 24 1013.2 1013.2 0.0
28/01:00am 14.4 7.6 7.8 64 3.3 NNW 33 44 18 24 1013.1 1013.1 0.0
28/12:39am 14.4 7.8 7.8 64 3.3 NNW 32 50 17 27 1012.9 1012.9 0.0
28/12:30am 14.4 8.5 7.5 63 3.4 NNW 28 39 15 21 1013.0 1013.0 0.0
28/12:00am 14.0 8.1 7.5 65 3.2 NNW 28 46 15 25 1013.1 1013.1 0.0
 
Date/Time
EST
Temp
°C
App
Temp
°C
Dew
Point
°C
Rel
Hum
%
Delta-T
°C
Wind Press
QNH
hPa
Press
MSL
hPa
Rain since
9am
mm
Dir  Spd
km/h
Gust
km/h
Spd
kts
Gust
kts
27/11:55pm 14.1 8.1 7.2 63 3.4 NNW 28 46 15 25 1013.2 1013.2 0.0
27/11:30pm 14.1 8.2 7.4 64 3.3 NNW 28 41 15 22 1013.4 1013.4 0.0
27/11:00pm 13.9 7.9 6.9 62 3.4 NNW 28 39 15 21 1013.7 1013.7 0.0
27/10:30pm 13.9 7.8 6.7 62 3.5 NNW 28 43 15 23 1013.8 1013.8 0.0
27/10:00pm 13.8 8.4 6.5 61 3.5 NW 24 37 13 20 1013.8 1013.8 0.0
27/09:30pm 13.4 8.4 6.3 62 3.4 NW 22 37 12 20 1013.7 1013.7 0.0
27/09:01pm 13.2 6.7 6.3 63 3.3 NW 30 48 16 26 1013.4 1013.4 0.0
27/09:00pm 13.3 6.3 6.2 62 3.4 NW 32 48 17 26 1013.4 1013.4 0.0
27/08:30pm 13.2 6.0 5.8 61 3.5 NW 33 54 18 29 1012.8 1012.8 0.0
27/08:20pm 13.1 6.8 5.7 61 3.5 NW 28 46 15 25 1013.4 1013.4 0.0
27/08:00pm 13.1 7.1 5.4 59 3.6 NW 26 43 14 23 1013.5 1013.5 0.0
27/07:40pm 12.9 6.4 4.9 58 3.7 NW 28 48 15 26 1013.8 1013.8 0.0
27/07:30pm 12.5 6.0 4.9 60 3.5 NNW 28 43 15 23 1014.1 1014.1 0.0
27/07:00pm 12.6 5.4 4.8 59 3.6 NNW 32 50 17 27 1014.3 1014.3 0.0
27/06:30pm 12.5 5.2 4.6 58 3.6 NW 32 52 17 28 1014.2 1014.2 0.0
27/06:26pm 12.5 5.2 4.6 58 3.6 NW 32 52 17 28 1014.2 1014.2 0.0
27/06:00pm 12.4 5.4 4.2 57 3.7 NW 30 44 16 24 1014.3 1014.3 0.0
27/05:35pm 12.4 5.0 4.0 56 3.8 NNW 32 52 17 28 1014.2 1014.2 0.0
27/05:30pm 12.4 5.0 4.0 56 3.8 NNW 32 46 17 25 1014.3 1014.3 0.0
27/05:13pm 12.3 5.7 4.1 57 3.7 NW 28 48 15 26 1014.6 1014.6 0.0
27/05:00pm 12.3 5.7 4.1 57 3.7 NW 28 41 15 22 1014.8 1014.8 0.0
27/04:30pm 12.3 5.6 3.6 55 3.9 NW 28 35 15 19 1015.2 1015.2 0.0
27/04:00pm 12.4 6.0 3.4 54 4.0 NW 26 39 14 21 1015.4 1015.4 0.0
27/03:30pm 12.5 6.4 3.0 52 4.2 NW 24 37 13 20 1015.4 1015.4 0.0
27/03:00pm 12.9 7.8 3.2 51 4.3 NW 19 28 10 15 1015.8 1015.8 0.0
27/02:30pm 13.3 7.9 2.6 48 4.7 NW 20 30 11 16 1015.8 1015.8 0.0
27/02:00pm 13.2 7.2 3.1 50 4.5 NW 24 33 13 18 1015.7 1015.7 0.0
27/01:30pm 12.7 7.9 2.4 49 4.5 NNW 17 26 9 14 1016.0 1016.0 0.0
27/01:00pm 11.9 6.6 2.1 51 4.2 NNW 19 26 10 14 1016.8 1016.8 0.0
27/12:30pm 12.6 7.1 1.9 48 4.6 NNW 20 30 11 16 1017.7 1017.7 0.0
27/12:00pm 12.1 6.6 1.8 49 4.4 NW 20 30 11 16 1017.9 1017.9 0.0
27/11:30am 12.3 7.8 2.1 49 4.4 N 15 20 8 11 1018.3 1018.3 0.0
27/11:00am 11.4 6.5 1.7 51 4.1 NNW 17 22 9 12 1019.0 1019.0 0.0
27/10:30am 10.8 5.3 1.8 54 3.8 NNW 20 28 11 15 1019.1 1019.1 0.0
27/10:00am 10.1 5.3 2.6 59 3.2 NW 17 24 9 13 1019.3 1019.3 0.0
27/09:30am 9.0 3.7 2.1 62 2.9 NW 19 26 10 14 1019.3 1019.3 0.0
27/09:00am 7.3 2.4 2.2 70 2.1 NNW 17 26 9 14 1019.0 1019.0 2.0
27/08:30am 6.3 1.3 1.6 72 1.9 NNW 17 22 9 12 1019.1 1019.1 2.0
27/08:00am 5.5 0.6 1.7 76 1.5 NW 17 22 9 12 1019.1 1019.1 2.0
27/07:30am 4.2 0.3 1.4 82 1.1 NNW 11 15 6 8 1018.9 1018.9 2.0
27/07:00am 3.6 -0.2 1.5 86 0.8 NW 11 19 6 10 1018.8 1018.8 2.0
27/06:30am 3.7 -0.5 1.7 87 0.8 NW 13 22 7 12 1018.8 1018.8 2.0
27/06:00am 4.3 -0.3 1.5 82 1.1 NNW 15 20 8 11 1018.7 1018.7 2.0
27/05:30am 4.2 -0.4 1.7 84 1.0 NNW 15 17 8 9 1018.9 1018.9 2.0
27/05:00am 3.8 1.7 1.5 85 0.9 WNW 2 11 1 6 1018.6 1018.6 2.0
27/04:30am 3.8 0.7 1.5 85 0.9 NNW 7 13 4 7 1018.3 1018.3 2.0
27/04:00am 4.5 2.0 1.4 80 1.2 NW 4 9 2 5 1018.1 1018.1 2.0
27/03:30am 4.1 0.6 1.5 83 1.0 NW 9 13 5 7 1018.1 1018.1 2.0
27/03:00am 4.4 1.4 1.9 84 1.0 WNW 7 11 4 6 1018.1 1018.1 2.0
27/02:30am 5.5 0.8 1.2 74 1.7 WSW 15 20 8 11 1018.2 1018.2 2.0
27/02:00am 5.6 0.6 1.6 75 1.6 WSW 17 19 9 10 1018.2 1018.2 2.0

Latest Capital City Observations: Canberra | Sydney | Melbourne | Brisbane | Adelaide | Perth | Hobart | Darwin

Other Formats:

Comma delimited format used in spreadsheet applications
http://www.bom.gov.au/fwo/IDT60901/IDT60901.94970.axf

JavaScript Object Notation format (JSON) in row-major order
http://www.bom.gov.au/fwo/IDT60901/IDT60901.94970.json